New York, NY (10138)

10:19 AM EDT on March 27, 2015 (GMT -0400)
Murray Hill | | Change Station
CLOSE
Current Station
Personal Weather Station
Location: New York, NY
Elevation: 98 ft
Nearby Weather Stations

Elev 98 ft 40.75 °N, 73.98 °W | Updated 6 seconds ago

Overcast
Overcast
41.9 °F
Feels Like 38 °F
N
6.0
Wind Variable Wind from WNW
Gusts 12.0 mph

Today
High -- | Low -- °F
--% Chance of Precip.
Yesterday
High -- | Low -- °F
Precip. -- in
6:48 AM 7:15 PM
First Quarter, 53% visible
Pressure 29.76 in
Visibility 10.0 miles
Clouds Few 1100 ft
Mostly Cloudy 2300 ft
Overcast 2800 ft
Windchill 38 °F
Dew Point 37 °F
Humidity 84%
Rainfall 0.30 in
Snow Depth Not available.
UV 1 out of 12
Pollen 5.90 out of 12
Air Quality Not available.
Flu Activity Not available.
METAR KNYC 271351Z 01004KT 10SM FEW011 BKN023 OVC028 04/02 A2978 RMK AO2 SLP077 T00440022 $

More Conditions Fewer Conditions

Pressure 29.76 in
Visibility 10.0 miles
Clouds Few 1100 ft
Mostly Cloudy 2300 ft
Overcast 2800 ft
Windchill 38 °F
Dew Point 37 °F
Humidity 84%
Rainfall 0.30 in
Snow Depth Not available.
UV 1 out of 12
Pollen 5.90 out of 12
Air Quality Not available.
Flu Activity Not available.
METAR KNYC 271351Z 01004KT 10SM FEW011 BKN023 OVC028 04/02 A2978 RMK AO2 SLP077 T00440022 $

More Conditions Fewer Conditions

10-Day Weather Forecast

Almanac

Astronomy

Mar. 27, 2015 Rise Set
Actual Time
Civil Twilight
Nautical Twilight
Astronomical Twilight
Moon
Length of Visible Light
Length of Day
Tomorrow will be .
, % of the Moon is Illuminated

Today's Extremes

State Highs State Lows

Community

WunderPhotos

Upload Photos

1,808,735 photos uploaded!

WunderBlogs® & News

Nearby

Air Quality

  Air Quality AQ Index Pollutant
Not available.

Snow Depth

Station Depth Elevation

Earthquake Activity

City Distance Mag. Time & Date
Minimum magnitude displayed is 2.5.

Coastal Water Temperatures

Place Temperature

Stations

Nearby Weather Stations

Station Location Temp. Windchill Dew Point Humidity Wind Precip. Elev Updated Type